Terminal Aerodrome Forecast
Issued by NWS

Home | Current Version | Previous Version | Text Only | Print | Product List | Glossary On
Versions: 1 2 3 4 5 6 7 8 9 10 11 12 13 14 15
714
FTUS44 KBMX 292332
TAFEET
TAF
KEET 292332Z 3000/3024 17012G20KT P6SM SCT040 SCT250
     FM300100 14006KT P6SM SCT060 SCT250
     FM300600 15006KT P6SM BKN025 WS019/17045KT
     FM301300 16010G18KT P6SM OVC015
     FM301700 16017G29KT P6SM BKN050=

USA.gov is the U.S. government's official web portal to all federal, state and local government web resources and services.